sensor_id;sensor_type;location;lat;lon;timestamp;P1;durP1;ratioP1;P2;durP2;ratioP2
37288;SDS011;23174;49.462;11.000;2022-09-09T00:00:47;5.00;;;1.40;;
37288;SDS011;23174;49.462;11.000;2022-09-09T00:03:19;2.45;;;1.38;;
37288;SDS011;23174;49.462;11.000;2022-09-09T00:05:36;2.85;;;1.30;;
37288;SDS011;23174;49.462;11.000;2022-09-09T00:07:47;2.65;;;1.30;;
37288;SDS011;23174;49.462;11.000;2022-09-09T00:09:53;2.38;;;1.55;;
37288;SDS011;23174;49.462;11.000;2022-09-09T00:12:04;2.75;;;1.35;;
37288;SDS011;23174;49.462;11.000;2022-09-09T00:14:35;4.18;;;1.40;;
37288;SDS011;23174;49.462;11.000;2022-09-09T00:16:55;2.42;;;1.30;;
37288;SDS011;23174;49.462;11.000;2022-09-09T00:19:06;1.60;;;1.25;;
37288;SDS011;23174;49.462;11.000;2022-09-09T00:21:14;2.05;;;1.42;;
37288;SDS011;23174;49.462;11.000;2022-09-09T00:25:23;6.05;;;1.30;;
37288;SDS011;23174;49.462;11.000;2022-09-09T00:27:31;2.85;;;1.35;;
37288;SDS011;23174;49.462;11.000;2022-09-09T00:29:43;3.03;;;1.30;;
37288;SDS011;23174;49.462;11.000;2022-09-09T00:31:54;3.20;;;1.40;;
37288;SDS011;23174;49.462;11.000;2022-09-09T00:34:13;1.48;;;1.35;;
37288;SDS011;23174;49.462;11.000;2022-09-09T00:36:23;4.15;;;1.50;;
37288;SDS011;23174;49.462;11.000;2022-09-09T00:38:33;3.30;;;1.30;;
37288;SDS011;23174;49.462;11.000;2022-09-09T00:42:54;1.23;;;1.17;;
37288;SDS011;23174;49.462;11.000;2022-09-09T00:47:51;3.88;;;1.30;;
37288;SDS011;23174;49.462;11.000;2022-09-09T00:57:30;2.88;;;1.10;;
37288;SDS011;23174;49.462;11.000;2022-09-09T00:59:51;1.15;;;1.02;;
37288;SDS011;23174;49.462;11.000;2022-09-09T01:01:55;3.10;;;1.70;;
37288;SDS011;23174;49.462;11.000;2022-09-09T01:03:57;2.58;;;1.65;;
37288;SDS011;23174;49.462;11.000;2022-09-09T01:08:05;2.15;;;1.40;;
37288;SDS011;23174;49.462;11.000;2022-09-09T01:10:50;3.85;;;1.33;;
37288;SDS011;23174;49.462;11.000;2022-09-09T01:12:53;1.42;;;1.30;;
37288;SDS011;23174;49.462;11.000;2022-09-09T01:15:01;1.98;;;1.27;;
37288;SDS011;23174;49.462;11.000;2022-09-09T01:17:14;2.97;;;1.40;;
37288;SDS011;23174;49.462;11.000;2022-09-09T01:19:35;4.32;;;1.42;;
37288;SDS011;23174;49.462;11.000;2022-09-09T01:21:46;2.83;;;1.38;;
37288;SDS011;23174;49.462;11.000;2022-09-09T01:26:17;2.40;;;1.27;;
37288;SDS011;23174;49.462;11.000;2022-09-09T01:28:27;3.15;;;1.27;;
37288;SDS011;23174;49.462;11.000;2022-09-09T01:30:29;3.22;;;1.27;;
37288;SDS011;23174;49.462;11.000;2022-09-09T01:32:53;2.60;;;1.27;;
37288;SDS011;23174;49.462;11.000;2022-09-09T01:34:58;1.33;;;1.23;;
37288;SDS011;23174;49.462;11.000;2022-09-09T01:37:05;3.25;;;1.65;;
37288;SDS011;23174;49.462;11.000;2022-09-09T01:39:10;1.35;;;1.20;;
37288;SDS011;23174;49.462;11.000;2022-09-09T01:41:12;1.67;;;1.17;;
37288;SDS011;23174;49.462;11.000;2022-09-09T01:43:13;3.67;;;1.23;;
37288;SDS011;23174;49.462;11.000;2022-09-09T01:45:13;1.95;;;1.00;;
37288;SDS011;23174;49.462;11.000;2022-09-09T01:47:14;4.95;;;1.00;;
37288;SDS011;23174;49.462;11.000;2022-09-09T01:49:15;2.80;;;1.33;;
37288;SDS011;23174;49.462;11.000;2022-09-09T01:51:17;2.63;;;1.00;;
37288;SDS011;23174;49.462;11.000;2022-09-09T01:53:18;1.00;;;0.90;;
37288;SDS011;23174;49.462;11.000;2022-09-09T01:55:23;3.58;;;1.30;;
37288;SDS011;23174;49.462;11.000;2022-09-09T01:57:34;2.25;;;1.17;;
37288;SDS011;23174;49.462;11.000;2022-09-09T02:00:02;1.10;;;1.00;;
37288;SDS011;23174;49.462;11.000;2022-09-09T02:02:19;1.52;;;0.98;;
37288;SDS011;23174;49.462;11.000;2022-09-09T02:06:30;1.52;;;1.20;;
37288;SDS011;23174;49.462;11.000;2022-09-09T02:10:58;1.20;;;1.10;;
37288;SDS011;23174;49.462;11.000;2022-09-09T02:13:07;2.35;;;1.58;;
37288;SDS011;23174;49.462;11.000;2022-09-09T02:15:32;1.42;;;1.10;;
37288;SDS011;23174;49.462;11.000;2022-09-09T02:17:39;3.50;;;1.05;;
37288;SDS011;23174;49.462;11.000;2022-09-09T02:19:44;4.13;;;1.17;;
37288;SDS011;23174;49.462;11.000;2022-09-09T02:21:49;1.98;;;1.10;;
37288;SDS011;23174;49.462;11.000;2022-09-09T02:23:50;1.13;;;1.02;;
37288;SDS011;23174;49.462;11.000;2022-09-09T02:25:53;1.42;;;1.20;;
37288;SDS011;23174;49.462;11.000;2022-09-09T02:27:55;1.27;;;1.20;;
37288;SDS011;23174;49.462;11.000;2022-09-09T02:30:00;1.88;;;1.30;;
37288;SDS011;23174;49.462;11.000;2022-09-09T02:32:03;1.17;;;0.98;;
37288;SDS011;23174;49.462;11.000;2022-09-09T02:34:06;2.42;;;1.35;;
37288;SDS011;23174;49.462;11.000;2022-09-09T02:36:10;3.42;;;1.40;;
37288;SDS011;23174;49.462;11.000;2022-09-09T02:38:16;3.85;;;1.25;;
37288;SDS011;23174;49.462;11.000;2022-09-09T02:40:17;2.28;;;1.17;;
37288;SDS011;23174;49.462;11.000;2022-09-09T02:42:18;1.52;;;1.10;;
37288;SDS011;23174;49.462;11.000;2022-09-09T02:44:19;3.08;;;1.40;;
37288;SDS011;23174;49.462;11.000;2022-09-09T02:46:36;1.05;;;1.00;;
37288;SDS011;23174;49.462;11.000;2022-09-09T02:53:24;2.33;;;1.05;;
37288;SDS011;23174;49.462;11.000;2022-09-09T02:59:47;1.60;;;1.00;;
37288;SDS011;23174;49.462;11.000;2022-09-09T03:01:48;1.35;;;1.20;;
37288;SDS011;23174;49.462;11.000;2022-09-09T03:03:49;1.38;;;1.27;;
37288;SDS011;23174;49.462;11.000;2022-09-09T03:05:50;2.67;;;1.13;;
37288;SDS011;23174;49.462;11.000;2022-09-09T03:07:50;1.83;;;1.40;;
37288;SDS011;23174;49.462;11.000;2022-09-09T03:09:51;2.65;;;0.90;;
37288;SDS011;23174;49.462;11.000;2022-09-09T03:11:54;1.52;;;1.20;;
37288;SDS011;23174;49.462;11.000;2022-09-09T03:13:55;1.60;;;1.10;;
37288;SDS011;23174;49.462;11.000;2022-09-09T03:15:58;3.25;;;1.63;;
37288;SDS011;23174;49.462;11.000;2022-09-09T03:17:59;1.13;;;1.00;;
37288;SDS011;23174;49.462;11.000;2022-09-09T03:20:02;1.30;;;1.20;;
37288;SDS011;23174;49.462;11.000;2022-09-09T03:22:03;1.15;;;1.00;;
37288;SDS011;23174;49.462;11.000;2022-09-09T03:24:04;1.65;;;1.13;;
37288;SDS011;23174;49.462;11.000;2022-09-09T03:26:06;1.30;;;1.20;;
37288;SDS011;23174;49.462;11.000;2022-09-09T03:28:07;2.65;;;1.10;;
37288;SDS011;23174;49.462;11.000;2022-09-09T03:30:07;2.20;;;1.10;;
37288;SDS011;23174;49.462;11.000;2022-09-09T03:32:09;4.47;;;1.10;;
37288;SDS011;23174;49.462;11.000;2022-09-09T03:34:10;1.98;;;1.17;;
37288;SDS011;23174;49.462;11.000;2022-09-09T03:36:11;1.20;;;1.13;;
37288;SDS011;23174;49.462;11.000;2022-09-09T03:38:12;1.83;;;1.08;;
37288;SDS011;23174;49.462;11.000;2022-09-09T03:40:12;3.58;;;1.33;;
37288;SDS011;23174;49.462;11.000;2022-09-09T03:42:14;2.70;;;1.20;;
37288;SDS011;23174;49.462;11.000;2022-09-09T03:44:18;1.38;;;1.17;;
37288;SDS011;23174;49.462;11.000;2022-09-09T03:46:20;1.80;;;1.40;;
37288;SDS011;23174;49.462;11.000;2022-09-09T03:48:22;1.55;;;1.10;;
37288;SDS011;23174;49.462;11.000;2022-09-09T03:50:24;2.65;;;1.45;;
37288;SDS011;23174;49.462;11.000;2022-09-09T03:52:24;5.70;;;1.30;;
37288;SDS011;23174;49.462;11.000;2022-09-09T03:54:26;1.63;;;1.23;;
37288;SDS011;23174;49.462;11.000;2022-09-09T03:56:27;2.08;;;1.30;;
37288;SDS011;23174;49.462;11.000;2022-09-09T03:58:27;2.35;;;0.90;;
37288;SDS011;23174;49.462;11.000;2022-09-09T04:00:28;1.88;;;1.00;;
37288;SDS011;23174;49.462;11.000;2022-09-09T04:02:30;1.30;;;1.17;;
37288;SDS011;23174;49.462;11.000;2022-09-09T04:04:30;1.90;;;1.20;;
37288;SDS011;23174;49.462;11.000;2022-09-09T04:06:31;2.00;;;1.45;;
37288;SDS011;23174;49.462;11.000;2022-09-09T04:08:31;2.50;;;0.93;;
37288;SDS011;23174;49.462;11.000;2022-09-09T04:10:32;3.20;;;1.10;;
37288;SDS011;23174;49.462;11.000;2022-09-09T04:12:33;3.70;;;1.23;;
37288;SDS011;23174;49.462;11.000;2022-09-09T04:14:34;3.58;;;1.20;;
37288;SDS011;23174;49.462;11.000;2022-09-09T04:16:35;1.52;;;0.98;;
37288;SDS011;23174;49.462;11.000;2022-09-09T04:18:37;3.83;;;1.40;;
37288;SDS011;23174;49.462;11.000;2022-09-09T04:20:38;2.00;;;1.00;;
37288;SDS011;23174;49.462;11.000;2022-09-09T04:22:38;2.35;;;1.27;;
37288;SDS011;23174;49.462;11.000;2022-09-09T04:24:39;1.95;;;1.60;;
37288;SDS011;23174;49.462;11.000;2022-09-09T04:26:40;1.20;;;1.00;;
37288;SDS011;23174;49.462;11.000;2022-09-09T04:28:40;5.88;;;1.30;;
37288;SDS011;23174;49.462;11.000;2022-09-09T04:30:41;3.22;;;1.20;;
37288;SDS011;23174;49.462;11.000;2022-09-09T04:32:45;2.42;;;1.38;;
37288;SDS011;23174;49.462;11.000;2022-09-09T04:34:45;1.27;;;1.17;;
37288;SDS011;23174;49.462;11.000;2022-09-09T04:36:48;1.52;;;0.98;;
37288;SDS011;23174;49.462;11.000;2022-09-09T04:38:48;2.05;;;0.93;;
37288;SDS011;23174;49.462;11.000;2022-09-09T04:40:49;2.00;;;1.20;;
37288;SDS011;23174;49.462;11.000;2022-09-09T04:42:51;3.05;;;1.00;;
37288;SDS011;23174;49.462;11.000;2022-09-09T04:44:52;2.15;;;1.20;;
37288;SDS011;23174;49.462;11.000;2022-09-09T04:46:52;7.82;;;2.08;;
37288;SDS011;23174;49.462;11.000;2022-09-09T04:48:53;6.25;;;1.48;;
37288;SDS011;23174;49.462;11.000;2022-09-09T04:50:55;3.38;;;1.70;;
37288;SDS011;23174;49.462;11.000;2022-09-09T04:53:03;3.15;;;1.42;;
37288;SDS011;23174;49.462;11.000;2022-09-09T04:55:07;4.28;;;1.80;;
37288;SDS011;23174;49.462;11.000;2022-09-09T04:57:10;3.72;;;1.52;;
37288;SDS011;23174;49.462;11.000;2022-09-09T04:59:10;5.88;;;1.48;;
37288;SDS011;23174;49.462;11.000;2022-09-09T05:01:20;1.20;;;1.10;;
37288;SDS011;23174;49.462;11.000;2022-09-09T05:03:21;2.13;;;1.27;;
37288;SDS011;23174;49.462;11.000;2022-09-09T05:05:22;2.25;;;1.23;;
37288;SDS011;23174;49.462;11.000;2022-09-09T05:07:23;1.30;;;1.20;;
37288;SDS011;23174;49.462;11.000;2022-09-09T05:09:26;3.42;;;1.38;;
37288;SDS011;23174;49.462;11.000;2022-09-09T05:11:27;3.90;;;1.23;;
37288;SDS011;23174;49.462;11.000;2022-09-09T05:13:32;6.18;;;1.17;;
37288;SDS011;23174;49.462;11.000;2022-09-09T05:15:32;4.40;;;1.33;;
37288;SDS011;23174;49.462;11.000;2022-09-09T05:17:33;2.63;;;1.38;;
37288;SDS011;23174;49.462;11.000;2022-09-09T05:19:34;1.45;;;1.20;;
37288;SDS011;23174;49.462;11.000;2022-09-09T05:21:34;5.97;;;1.30;;
37288;SDS011;23174;49.462;11.000;2022-09-09T05:23:35;2.88;;;1.50;;
37288;SDS011;23174;49.462;11.000;2022-09-09T05:25:36;2.00;;;1.15;;
37288;SDS011;23174;49.462;11.000;2022-09-09T05:27:37;1.20;;;1.10;;
37288;SDS011;23174;49.462;11.000;2022-09-09T05:29:38;3.22;;;1.50;;
37288;SDS011;23174;49.462;11.000;2022-09-09T05:31:41;1.65;;;1.27;;
37288;SDS011;23174;49.462;11.000;2022-09-09T05:33:42;1.48;;;1.38;;
37288;SDS011;23174;49.462;11.000;2022-09-09T05:35:45;1.95;;;1.27;;
37288;SDS011;23174;49.462;11.000;2022-09-09T05:37:46;1.63;;;1.50;;
37288;SDS011;23174;49.462;11.000;2022-09-09T05:39:47;4.70;;;1.45;;
37288;SDS011;23174;49.462;11.000;2022-09-09T05:41:48;1.58;;;1.20;;
37288;SDS011;23174;49.462;11.000;2022-09-09T05:43:48;3.45;;;1.60;;
37288;SDS011;23174;49.462;11.000;2022-09-09T05:45:58;3.70;;;1.52;;
37288;SDS011;23174;49.462;11.000;2022-09-09T05:48:04;3.92;;;1.95;;
37288;SDS011;23174;49.462;11.000;2022-09-09T05:50:05;1.73;;;1.30;;
37288;SDS011;23174;49.462;11.000;2022-09-09T05:52:05;4.30;;;1.38;;
37288;SDS011;23174;49.462;11.000;2022-09-09T05:54:06;4.18;;;1.50;;
37288;SDS011;23174;49.462;11.000;2022-09-09T05:56:08;2.95;;;2.33;;
37288;SDS011;23174;49.462;11.000;2022-09-09T05:58:17;2.10;;;1.50;;
37288;SDS011;23174;49.462;11.000;2022-09-09T06:00:18;3.47;;;1.75;;
37288;SDS011;23174;49.462;11.000;2022-09-09T06:02:19;5.85;;;1.60;;
37288;SDS011;23174;49.462;11.000;2022-09-09T06:04:19;2.35;;;1.52;;
37288;SDS011;23174;49.462;11.000;2022-09-09T06:06:25;8.07;;;1.45;;
37288;SDS011;23174;49.462;11.000;2022-09-09T06:08:28;4.80;;;1.30;;
37288;SDS011;23174;49.462;11.000;2022-09-09T06:10:28;4.82;;;1.30;;
37288;SDS011;23174;49.462;11.000;2022-09-09T06:12:29;2.25;;;1.30;;
37288;SDS011;23174;49.462;11.000;2022-09-09T06:14:29;1.77;;;1.42;;
37288;SDS011;23174;49.462;11.000;2022-09-09T06:16:30;6.53;;;1.65;;
37288;SDS011;23174;49.462;11.000;2022-09-09T06:18:34;4.80;;;1.38;;
37288;SDS011;23174;49.462;11.000;2022-09-09T06:20:35;1.13;;;0.50;;
37288;SDS011;23174;49.462;11.000;2022-09-09T06:22:36;1.58;;;1.00;;
37288;SDS011;23174;49.462;11.000;2022-09-09T06:24:38;0.57;;;0.52;;
37288;SDS011;23174;49.462;11.000;2022-09-09T06:26:39;0.20;;;0.20;;
37288;SDS011;23174;49.462;11.000;2022-09-09T06:28:40;1.17;;;0.52;;
37288;SDS011;23174;49.462;11.000;2022-09-09T06:30:45;1.85;;;0.50;;
37288;SDS011;23174;49.462;11.000;2022-09-09T06:32:47;1.08;;;0.98;;
37288;SDS011;23174;49.462;11.000;2022-09-09T06:34:47;0.47;;;0.47;;
37288;SDS011;23174;49.462;11.000;2022-09-09T06:36:49;0.35;;;0.35;;
37288;SDS011;23174;49.462;11.000;2022-09-09T06:38:49;0.63;;;0.57;;
37288;SDS011;23174;49.462;11.000;2022-09-09T06:40:53;0.50;;;0.50;;
37288;SDS011;23174;49.462;11.000;2022-09-09T06:42:58;0.80;;;0.60;;
37288;SDS011;23174;49.462;11.000;2022-09-09T06:45:00;1.58;;;0.77;;
37288;SDS011;23174;49.462;11.000;2022-09-09T06:47:01;0.43;;;0.35;;
37288;SDS011;23174;49.462;11.000;2022-09-09T06:49:02;1.35;;;0.65;;
37288;SDS011;23174;49.462;11.000;2022-09-09T06:53:07;4.65;;;1.17;;
37288;SDS011;23174;49.462;11.000;2022-09-09T06:55:08;2.75;;;0.98;;
37288;SDS011;23174;49.462;11.000;2022-09-09T06:57:08;0.03;;;0.00;;
37288;SDS011;23174;49.462;11.000;2022-09-09T06:59:09;1.17;;;0.63;;
37288;SDS011;23174;49.462;11.000;2022-09-09T07:01:11;0.35;;;0.35;;
37288;SDS011;23174;49.462;11.000;2022-09-09T07:03:13;1.30;;;0.75;;
37288;SDS011;23174;49.462;11.000;2022-09-09T07:05:14;6.22;;;0.32;;
37288;SDS011;23174;49.462;11.000;2022-09-09T07:07:15;0.30;;;0.30;;
37288;SDS011;23174;49.462;11.000;2022-09-09T07:09:16;0.38;;;0.38;;
37288;SDS011;23174;49.462;11.000;2022-09-09T07:11:17;0.10;;;0.10;;
37288;SDS011;23174;49.462;11.000;2022-09-09T07:13:25;0.82;;;0.75;;
37288;SDS011;23174;49.462;11.000;2022-09-09T07:15:27;0.63;;;0.60;;
37288;SDS011;23174;49.462;11.000;2022-09-09T07:17:27;2.83;;;0.60;;
37288;SDS011;23174;49.462;11.000;2022-09-09T07:19:29;1.10;;;0.50;;
37288;SDS011;23174;49.462;11.000;2022-09-09T07:21:30;0.50;;;0.50;;
37288;SDS011;23174;49.462;11.000;2022-09-09T07:23:32;0.63;;;0.32;;
37288;SDS011;23174;49.462;11.000;2022-09-09T07:25:32;0.43;;;0.43;;
37288;SDS011;23174;49.462;11.000;2022-09-09T07:27:33;0.17;;;0.17;;
37288;SDS011;23174;49.462;11.000;2022-09-09T07:29:34;1.58;;;0.95;;
37288;SDS011;23174;49.462;11.000;2022-09-09T07:31:35;0.80;;;0.45;;
37288;SDS011;23174;49.462;11.000;2022-09-09T07:33:37;7.78;;;0.32;;
37288;SDS011;23174;49.462;11.000;2022-09-09T07:35:37;0.38;;;0.30;;
37288;SDS011;23174;49.462;11.000;2022-09-09T07:37:38;0.68;;;0.68;;
37288;SDS011;23174;49.462;11.000;2022-09-09T07:39:39;0.20;;;0.20;;
37288;SDS011;23174;49.462;11.000;2022-09-09T07:41:44;0.00;;;0.00;;
37288;SDS011;23174;49.462;11.000;2022-09-09T07:43:46;0.30;;;0.30;;
37288;SDS011;23174;49.462;11.000;2022-09-09T07:45:48;1.17;;;0.57;;
37288;SDS011;23174;49.462;11.000;2022-09-09T07:47:57;0.47;;;0.43;;
37288;SDS011;23174;49.462;11.000;2022-09-09T07:49:58;0.98;;;0.57;;
37288;SDS011;23174;49.462;11.000;2022-09-09T07:51:59;0.00;;;0.00;;
37288;SDS011;23174;49.462;11.000;2022-09-09T07:54:00;0.00;;;0.00;;
37288;SDS011;23174;49.462;11.000;2022-09-09T07:56:07;0.60;;;0.60;;
37288;SDS011;23174;49.462;11.000;2022-09-09T07:58:10;0.15;;;0.15;;
37288;SDS011;23174;49.462;11.000;2022-09-09T08:00:11;0.38;;;0.13;;
37288;SDS011;23174;49.462;11.000;2022-09-09T08:02:12;0.30;;;0.30;;
37288;SDS011;23174;49.462;11.000;2022-09-09T08:04:13;0.70;;;0.47;;
37288;SDS011;23174;49.462;11.000;2022-09-09T08:06:16;0.60;;;0.40;;
37288;SDS011;23174;49.462;11.000;2022-09-09T08:08:16;0.03;;;0.03;;
37288;SDS011;23174;49.462;11.000;2022-09-09T08:10:17;0.43;;;0.43;;
37288;SDS011;23174;49.462;11.000;2022-09-09T08:12:18;0.35;;;0.20;;
37288;SDS011;23174;49.462;11.000;2022-09-09T08:14:18;0.50;;;0.45;;
37288;SDS011;23174;49.462;11.000;2022-09-09T08:16:20;0.65;;;0.63;;
37288;SDS011;23174;49.462;11.000;2022-09-09T08:18:22;1.05;;;0.85;;
37288;SDS011;23174;49.462;11.000;2022-09-09T08:20:23;0.20;;;0.20;;
37288;SDS011;23174;49.462;11.000;2022-09-09T08:22:24;1.35;;;0.52;;
37288;SDS011;23174;49.462;11.000;2022-09-09T08:24:25;1.55;;;0.57;;
37288;SDS011;23174;49.462;11.000;2022-09-09T08:26:30;0.35;;;0.35;;
37288;SDS011;23174;49.462;11.000;2022-09-09T08:28:33;0.52;;;0.20;;
37288;SDS011;23174;49.462;11.000;2022-09-09T08:30:34;2.47;;;0.30;;
37288;SDS011;23174;49.462;11.000;2022-09-09T08:32:34;0.80;;;0.20;;
37288;SDS011;23174;49.462;11.000;2022-09-09T08:34:35;1.52;;;0.28;;
37288;SDS011;23174;49.462;11.000;2022-09-09T08:36:39;0.45;;;0.45;;
37288;SDS011;23174;49.462;11.000;2022-09-09T08:38:42;0.30;;;0.30;;
37288;SDS011;23174;49.462;11.000;2022-09-09T08:40:43;0.90;;;0.30;;
37288;SDS011;23174;49.462;11.000;2022-09-09T08:42:49;0.32;;;0.32;;
37288;SDS011;23174;49.462;11.000;2022-09-09T08:51:57;3.85;;;0.22;;
37288;SDS011;23174;49.462;11.000;2022-09-09T08:53:59;3.50;;;1.00;;
37288;SDS011;23174;49.462;11.000;2022-09-09T08:56:06;1.52;;;0.90;;
37288;SDS011;23174;49.462;11.000;2022-09-09T08:58:13;3.35;;;0.95;;
37288;SDS011;23174;49.462;11.000;2022-09-09T09:00:16;3.88;;;1.20;;
37288;SDS011;23174;49.462;11.000;2022-09-09T09:02:27;1.17;;;0.70;;
37288;SDS011;23174;49.462;11.000;2022-09-09T09:04:42;0.93;;;0.75;;
37288;SDS011;23174;49.462;11.000;2022-09-09T09:07:01;1.85;;;0.70;;
37288;SDS011;23174;49.462;11.000;2022-09-09T09:09:31;1.23;;;1.00;;
37288;SDS011;23174;49.462;11.000;2022-09-09T09:13:56;1.23;;;0.63;;
37288;SDS011;23174;49.462;11.000;2022-09-09T09:18:32;1.65;;;0.65;;
37288;SDS011;23174;49.462;11.000;2022-09-09T09:20:47;2.15;;;0.82;;
37288;SDS011;23174;49.462;11.000;2022-09-09T09:23:09;3.70;;;1.08;;
37288;SDS011;23174;49.462;11.000;2022-09-09T09:25:21;2.10;;;0.90;;
37288;SDS011;23174;49.462;11.000;2022-09-09T09:29:51;1.48;;;0.82;;
37288;SDS011;23174;49.462;11.000;2022-09-09T09:31:58;1.63;;;0.98;;
37288;SDS011;23174;49.462;11.000;2022-09-09T09:34:02;1.40;;;0.90;;
37288;SDS011;23174;49.462;11.000;2022-09-09T09:36:03;3.53;;;0.90;;
37288;SDS011;23174;49.462;11.000;2022-09-09T09:38:18;2.83;;;0.90;;
37288;SDS011;23174;49.462;11.000;2022-09-09T09:40:22;4.40;;;0.98;;
37288;SDS011;23174;49.462;11.000;2022-09-09T09:42:23;3.20;;;0.90;;
37288;SDS011;23174;49.462;11.000;2022-09-09T09:44:26;3.60;;;0.77;;
37288;SDS011;23174;49.462;11.000;2022-09-09T09:46:28;1.30;;;0.70;;
37288;SDS011;23174;49.462;11.000;2022-09-09T09:48:29;0.85;;;0.75;;
37288;SDS011;23174;49.462;11.000;2022-09-09T09:50:30;3.25;;;1.00;;
37288;SDS011;23174;49.462;11.000;2022-09-09T09:52:32;3.40;;;0.90;;
37288;SDS011;23174;49.462;11.000;2022-09-09T09:54:38;2.03;;;1.10;;
37288;SDS011;23174;49.462;11.000;2022-09-09T09:56:42;2.78;;;1.05;;
37288;SDS011;23174;49.462;11.000;2022-09-09T10:00:49;1.83;;;1.00;;
37288;SDS011;23174;49.462;11.000;2022-09-09T10:02:51;1.90;;;0.90;;
37288;SDS011;23174;49.462;11.000;2022-09-09T10:05:02;2.20;;;0.95;;
37288;SDS011;23174;49.462;11.000;2022-09-09T10:07:38;2.72;;;0.80;;
37288;SDS011;23174;49.462;11.000;2022-09-09T10:09:33;3.38;;;1.17;;
37288;SDS011;23174;49.462;11.000;2022-09-09T10:25:43;1.70;;;0.75;;
37288;SDS011;23174;49.462;11.000;2022-09-09T10:30:43;2.10;;;1.23;;
37288;SDS011;23174;49.462;11.000;2022-09-09T10:33:04;3.42;;;1.02;;
37288;SDS011;23174;49.462;11.000;2022-09-09T10:37:42;3.30;;;1.30;;
37288;SDS011;23174;49.462;11.000;2022-09-09T10:39:50;1.98;;;1.00;;
37288;SDS011;23174;49.462;11.000;2022-09-09T10:42:12;2.53;;;0.65;;
37288;SDS011;23174;49.462;11.000;2022-09-09T10:46:45;2.85;;;1.17;;
37288;SDS011;23174;49.462;11.000;2022-09-09T10:55:53;1.48;;;0.77;;
37288;SDS011;23174;49.462;11.000;2022-09-09T10:58:00;1.73;;;0.80;;
37288;SDS011;23174;49.462;11.000;2022-09-09T11:00:04;2.33;;;1.13;;
37288;SDS011;23174;49.462;11.000;2022-09-09T11:04:33;2.42;;;1.05;;
37288;SDS011;23174;49.462;11.000;2022-09-09T11:06:40;1.58;;;0.90;;
37288;SDS011;23174;49.462;11.000;2022-09-09T11:08:44;2.17;;;1.10;;
37288;SDS011;23174;49.462;11.000;2022-09-09T11:13:21;2.13;;;0.85;;
37288;SDS011;23174;49.462;11.000;2022-09-09T11:15:59;2.45;;;0.75;;
37288;SDS011;23174;49.462;11.000;2022-09-09T11:18:11;2.00;;;0.88;;
37288;SDS011;23174;49.462;11.000;2022-09-09T11:20:17;2.53;;;1.20;;
37288;SDS011;23174;49.462;11.000;2022-09-09T11:22:23;3.75;;;1.20;;
37288;SDS011;23174;49.462;11.000;2022-09-09T11:24:33;3.65;;;0.90;;
37288;SDS011;23174;49.462;11.000;2022-09-09T11:26:47;1.63;;;0.70;;
37288;SDS011;23174;49.462;11.000;2022-09-09T11:38:45;6.18;;;1.40;;
37288;SDS011;23174;49.462;11.000;2022-09-09T11:40:47;2.70;;;1.00;;
37288;SDS011;23174;49.462;11.000;2022-09-09T11:43:09;2.67;;;0.80;;
37288;SDS011;23174;49.462;11.000;2022-09-09T11:45:24;1.88;;;0.60;;
37288;SDS011;23174;49.462;11.000;2022-09-09T11:47:29;3.83;;;0.75;;
37288;SDS011;23174;49.462;11.000;2022-09-09T11:49:41;1.95;;;0.70;;
37288;SDS011;23174;49.462;11.000;2022-09-09T11:51:42;2.80;;;0.90;;
37288;SDS011;23174;49.462;11.000;2022-09-09T11:53:50;2.53;;;0.93;;
37288;SDS011;23174;49.462;11.000;2022-09-09T11:56:02;3.65;;;0.95;;
37288;SDS011;23174;49.462;11.000;2022-09-09T12:00:27;2.13;;;1.10;;
37288;SDS011;23174;49.462;11.000;2022-09-09T12:02:48;2.55;;;1.08;;
37288;SDS011;23174;49.462;11.000;2022-09-09T12:04:55;1.67;;;0.82;;
37288;SDS011;23174;49.462;11.000;2022-09-09T12:09:12;2.97;;;0.95;;
37288;SDS011;23174;49.462;11.000;2022-09-09T12:11:28;1.17;;;0.77;;
37288;SDS011;23174;49.462;11.000;2022-09-09T12:13:30;3.03;;;0.73;;
37288;SDS011;23174;49.462;11.000;2022-09-09T12:15:31;1.83;;;0.98;;
37288;SDS011;23174;49.462;11.000;2022-09-09T12:17:36;1.73;;;0.73;;
37288;SDS011;23174;49.462;11.000;2022-09-09T12:19:43;2.38;;;0.70;;
37288;SDS011;23174;49.462;11.000;2022-09-09T12:21:49;2.15;;;0.75;;
37288;SDS011;23174;49.462;11.000;2022-09-09T12:24:03;2.05;;;0.70;;
37288;SDS011;23174;49.462;11.000;2022-09-09T12:28:39;3.88;;;0.68;;
37288;SDS011;23174;49.462;11.000;2022-09-09T12:33:11;3.33;;;0.90;;
37288;SDS011;23174;49.462;11.000;2022-09-09T12:35:17;1.48;;;0.70;;
37288;SDS011;23174;49.462;11.000;2022-09-09T12:42:14;1.60;;;0.90;;
37288;SDS011;23174;49.462;11.000;2022-09-09T12:44:16;1.65;;;0.88;;
37288;SDS011;23174;49.462;11.000;2022-09-09T12:48:44;2.45;;;0.77;;
37288;SDS011;23174;49.462;11.000;2022-09-09T12:52:49;1.95;;;0.70;;
37288;SDS011;23174;49.462;11.000;2022-09-09T12:54:51;1.10;;;0.77;;
37288;SDS011;23174;49.462;11.000;2022-09-09T12:56:53;2.05;;;0.90;;
37288;SDS011;23174;49.462;11.000;2022-09-09T12:58:55;5.30;;;0.73;;
37288;SDS011;23174;49.462;11.000;2022-09-09T13:00:56;1.65;;;0.60;;
37288;SDS011;23174;49.462;11.000;2022-09-09T13:02:58;4.15;;;1.00;;
37288;SDS011;23174;49.462;11.000;2022-09-09T13:05:14;4.45;;;0.88;;
37288;SDS011;23174;49.462;11.000;2022-09-09T13:07:18;4.70;;;1.10;;
37288;SDS011;23174;49.462;11.000;2022-09-09T13:09:21;1.80;;;0.85;;
37288;SDS011;23174;49.462;11.000;2022-09-09T13:11:23;1.48;;;0.85;;
37288;SDS011;23174;49.462;11.000;2022-09-09T13:13:35;2.55;;;1.08;;
37288;SDS011;23174;49.462;11.000;2022-09-09T13:15:37;1.38;;;0.90;;
37288;SDS011;23174;49.462;11.000;2022-09-09T13:17:38;2.30;;;0.80;;
37288;SDS011;23174;49.462;11.000;2022-09-09T13:19:39;3.08;;;1.10;;
37288;SDS011;23174;49.462;11.000;2022-09-09T13:21:45;1.83;;;0.80;;
37288;SDS011;23174;49.462;11.000;2022-09-09T13:23:49;1.70;;;0.80;;
37288;SDS011;23174;49.462;11.000;2022-09-09T13:25:56;1.17;;;0.60;;
37288;SDS011;23174;49.462;11.000;2022-09-09T13:28:01;2.78;;;1.00;;
37288;SDS011;23174;49.462;11.000;2022-09-09T13:32:27;3.80;;;0.80;;
37288;SDS011;23174;49.462;11.000;2022-09-09T13:34:29;1.05;;;0.77;;
37288;SDS011;23174;49.462;11.000;2022-09-09T13:36:33;1.73;;;0.60;;
37288;SDS011;23174;49.462;11.000;2022-09-09T13:38:38;2.25;;;0.80;;
37288;SDS011;23174;49.462;11.000;2022-09-09T13:43:04;3.80;;;0.77;;
37288;SDS011;23174;49.462;11.000;2022-09-09T13:45:05;4.03;;;0.95;;
37288;SDS011;23174;49.462;11.000;2022-09-09T13:47:19;2.72;;;0.80;;
37288;SDS011;23174;49.462;11.000;2022-09-09T13:49:23;1.85;;;0.90;;
37288;SDS011;23174;49.462;11.000;2022-09-09T13:51:49;1.35;;;0.80;;
37288;SDS011;23174;49.462;11.000;2022-09-09T13:53:50;5.68;;;1.08;;
37288;SDS011;23174;49.462;11.000;2022-09-09T13:55:52;1.90;;;0.80;;
37288;SDS011;23174;49.462;11.000;2022-09-09T13:57:54;2.53;;;0.90;;
37288;SDS011;23174;49.462;11.000;2022-09-09T14:00:05;6.47;;;1.60;;
37288;SDS011;23174;49.462;11.000;2022-09-09T14:02:09;3.72;;;0.82;;
37288;SDS011;23174;49.462;11.000;2022-09-09T14:04:10;1.85;;;1.23;;
37288;SDS011;23174;49.462;11.000;2022-09-09T14:06:11;2.72;;;1.00;;
37288;SDS011;23174;49.462;11.000;2022-09-09T14:08:20;1.98;;;0.80;;
37288;SDS011;23174;49.462;11.000;2022-09-09T14:10:23;1.48;;;0.93;;
37288;SDS011;23174;49.462;11.000;2022-09-09T14:12:23;9.00;;;1.60;;
37288;SDS011;23174;49.462;11.000;2022-09-09T14:14:24;2.13;;;1.02;;
37288;SDS011;23174;49.462;11.000;2022-09-09T14:16:25;3.08;;;1.10;;
37288;SDS011;23174;49.462;11.000;2022-09-09T14:18:27;5.35;;;1.00;;